Time;durP1;ratioP1;P1;durP2;ratioP2;P2;SDS_P1;SDS_P2;PMS_P1;PMS_P2;Temp;Humidity;BMP_temperature;BMP_pressure;BME280_temperature;BME280_humidity;BME280_pressure;Samples;Min_cycle;Max_cycle;Signal;HPM_P1;HPM_P2
2023/10/17 00:01:44;;;;;;;11.90;8.60;;;;;;;;;;769194;181;916620;-63
2023/10/17 00:04:25;;;;;;;15.00;9.27;;;;;;;;;;752142;184;914223;-62
2023/10/17 00:06:37;;;;;;;13.27;9.60;;;;;;;;;;768822;181;878700;-62
2023/10/17 00:09:05;;;;;;;13.87;9.50;;;;;;;;;;776679;178;914874;-63
2023/10/17 00:11:32;;;;;;;20.10;11.10;;;;;;;;;;768533;181;916085;-62
2023/10/17 00:14:07;;;;;;;14.40;10.07;;;;;;;;;;764694;178;922524;-63
2023/10/17 00:16:33;;;;;;;14.80;11.10;;;;;;;;;;770494;180;919062;-63
2023/10/17 00:19:04;;;;;;;16.10;11.35;;;;;;;;;;774521;181;918193;-61
2023/10/17 00:21:23;;;;;;;13.93;9.60;;;;;;;;;;766906;181;868838;-62
2023/10/17 00:23:50;;;;;;;15.70;10.30;;;;;;;;;;766881;179;918508;-63
2023/10/17 00:26:14;;;;;;;12.63;9.57;;;;;;;;;;775238;181;919155;-62
2023/10/17 00:28:40;;;;;;;15.53;9.87;;;;;;;;;;767962;181;817534;-63
2023/10/17 00:31:07;;;;;;;15.13;10.40;;;;;;;;;;773857;178;914170;-63
2023/10/17 00:33:37;;;;;;;21.30;10.63;;;;;;;;;;758878;185;919348;-62
2023/10/17 00:36:03;;;;;;;12.07;9.27;;;;;;;;;;767319;181;919936;-64
2023/10/17 00:38:29;;;;;;;12.75;9.93;;;;;;;;;;765005;182;921984;-63
2023/10/17 00:40:51;;;;;;;14.37;10.33;;;;;;;;;;759438;178;919031;-63
2023/10/17 00:43:17;;;;;;;13.10;8.93;;;;;;;;;;782561;178;919182;-63
2023/10/17 00:45:46;;;;;;;15.03;9.27;;;;;;;;;;764062;181;917577;-63
2023/10/17 00:48:18;;;;;;;16.23;9.80;;;;;;;;;;751269;184;919074;-62
2023/10/17 00:50:43;;;;;;;16.20;10.20;;;;;;;;;;753832;184;922871;-63
2023/10/17 00:53:09;;;;;;;15.90;10.80;;;;;;;;;;770795;178;916881;-62
2023/10/17 00:55:36;;;;;;;14.93;11.00;;;;;;;;;;772822;180;918306;-62
2023/10/17 00:58:01;;;;;;;17.90;10.53;;;;;;;;;;771158;181;918670;-63
2023/10/17 01:03:01;;;;;;;15.03;10.30;;;;;;;;;;769570;181;936509;-63
2023/10/17 01:05:26;;;;;;;13.27;9.13;;;;;;;;;;771080;179;904044;-62
2023/10/17 01:07:50;;;;;;;14.00;9.50;;;;;;;;;;774677;178;816759;-63
2023/10/17 01:10:17;;;;;;;15.33;10.93;;;;;;;;;;780219;177;914243;-62
2023/10/17 01:15:20;;;;;;;11.87;9.40;;;;;;;;;;770457;177;916826;-63
2023/10/17 01:17:47;;;;;;;17.50;11.25;;;;;;;;;;771301;181;1018776;-64
2023/10/17 01:20:19;;;;;;;15.67;9.37;;;;;;;;;;770266;181;919150;-62
2023/10/17 01:22:42;;;;;;;14.15;9.75;;;;;;;;;;767794;181;917327;-65
2023/10/17 01:25:18;;;;;;;17.00;10.20;;;;;;;;;;769772;179;923793;-63
2023/10/17 01:27:31;;;;;;;19.40;10.57;;;;;;;;;;773920;181;816865;-62
2023/10/17 01:29:56;;;;;;;13.70;9.93;;;;;;;;;;769283;180;919379;-64
2023/10/17 01:32:23;;;;;;;18.80;12.77;;;;;;;;;;768506;181;917719;-62
2023/10/17 01:34:48;;;;;;;23.53;15.73;;;;;;;;;;768866;181;920809;-65
2023/10/17 01:37:14;;;;;;;26.20;15.47;;;;;;;;;;763380;182;818352;-63
2023/10/17 01:39:40;;;;;;;15.45;11.98;;;;;;;;;;762464;181;916062;-63
2023/10/17 01:42:06;;;;;;;16.43;11.77;;;;;;;;;;776094;180;816524;-63
2023/10/17 01:44:31;;;;;;;18.13;13.33;;;;;;;;;;769703;178;918579;-63
2023/10/17 01:46:57;;;;;;;19.02;13.45;;;;;;;;;;769484;180;818770;-64
2023/10/17 01:49:27;;;;;;;23.17;13.43;;;;;;;;;;774873;177;917824;-63
2023/10/17 01:51:49;;;;;;;20.43;13.50;;;;;;;;;;772506;181;919778;-62
2023/10/17 01:54:17;;;;;;;21.27;14.00;;;;;;;;;;762499;181;917494;-65
2023/10/17 01:56:47;;;;;;;20.27;14.60;;;;;;;;;;770939;178;917717;-65
2023/10/17 01:59:17;;;;;;;18.47;14.13;;;;;;;;;;771166;180;918983;-64
2023/10/17 02:01:36;;;;;;;18.17;13.10;;;;;;;;;;768119;181;918673;-63
2023/10/17 02:04:03;;;;;;;19.20;12.50;;;;;;;;;;766800;180;920239;-65
2023/10/17 02:06:30;;;;;;;20.55;14.38;;;;;;;;;;773639;181;919585;-64
2023/10/17 02:08:55;;;;;;;16.03;12.40;;;;;;;;;;774835;180;918318;-63
2023/10/17 02:11:23;;;;;;;17.43;13.40;;;;;;;;;;770455;180;919224;-64
2023/10/17 02:13:51;;;;;;;18.60;12.63;;;;;;;;;;772194;180;920012;-63
2023/10/17 02:16:17;;;;;;;20.70;12.87;;;;;;;;;;774178;181;919159;-63
2023/10/17 02:18:44;;;;;;;15.80;12.70;;;;;;;;;;769449;181;920637;-64
2023/10/17 02:21:10;;;;;;;16.83;12.00;;;;;;;;;;772516;181;917006;-65
2023/10/17 02:23:50;;;;;;;20.40;13.07;;;;;;;;;;772188;181;916706;-64
2023/10/17 02:26:21;;;;;;;15.40;12.53;;;;;;;;;;770007;181;918376;-62
2023/10/17 02:28:46;;;;;;;18.87;13.17;;;;;;;;;;764892;178;919234;-64
2023/10/17 02:31:14;;;;;;;17.70;12.30;;;;;;;;;;773086;178;911388;-63
2023/10/17 02:33:43;;;;;;;14.60;11.33;;;;;;;;;;769375;181;920600;-64
2023/10/17 02:36:12;;;;;;;18.47;12.20;;;;;;;;;;759587;185;918916;-64
2023/10/17 02:38:38;;;;;;;17.90;11.67;;;;;;;;;;767596;180;918419;-62
2023/10/17 02:41:06;;;;;;;17.17;11.67;;;;;;;;;;764953;180;917978;-62
2023/10/17 02:43:30;;;;;;;15.93;11.90;;;;;;;;;;767267;180;916849;-64
2023/10/17 02:46:04;;;;;;;14.17;11.23;;;;;;;;;;772479;180;919343;-64
2023/10/17 02:48:24;;;;;;;17.17;12.07;;;;;;;;;;768613;180;919226;-64
2023/10/17 02:50:49;;;;;;;16.77;11.50;;;;;;;;;;771545;179;918242;-63
2023/10/17 02:53:15;;;;;;;19.03;12.00;;;;;;;;;;768893;181;918601;-64
2023/10/17 02:55:41;;;;;;;15.35;10.35;;;;;;;;;;763207;181;919148;-64
2023/10/17 02:58:07;;;;;;;15.17;11.87;;;;;;;;;;769973;181;924559;-64
2023/10/17 03:00:34;;;;;;;14.25;11.07;;;;;;;;;;774326;181;918839;-65
2023/10/17 03:02:59;;;;;;;17.83;13.23;;;;;;;;;;762123;181;802880;-63
2023/10/17 03:05:26;;;;;;;17.17;11.10;;;;;;;;;;764996;181;924110;-63
2023/10/17 03:07:51;;;;;;;14.57;10.60;;;;;;;;;;770073;178;922166;-63
2023/10/17 03:10:26;;;;;;;14.60;10.23;;;;;;;;;;774285;181;918627;-63
2023/10/17 03:12:55;;;;;;;17.83;11.53;;;;;;;;;;769351;181;817197;-63
2023/10/17 03:15:18;;;;;;;16.58;11.55;;;;;;;;;;767126;181;918573;-65
2023/10/17 03:17:43;;;;;;;18.15;12.68;;;;;;;;;;758625;183;919239;-63
2023/10/17 03:20:11;;;;;;;15.23;10.80;;;;;;;;;;746864;184;918854;-62
2023/10/17 03:22:35;;;;;;;13.10;10.57;;;;;;;;;;767508;181;818567;-63
2023/10/17 03:25:09;;;;;;;16.83;10.70;;;;;;;;;;769844;181;919315;-63
2023/10/17 03:27:36;;;;;;;16.10;10.93;;;;;;;;;;773142;181;816821;-65
2023/10/17 03:30:05;;;;;;;16.70;10.03;;;;;;;;;;767026;181;919618;-64
2023/10/17 03:32:28;;;;;;;17.77;10.97;;;;;;;;;;769856;178;918832;-63
2023/10/17 03:34:56;;;;;;;14.47;12.07;;;;;;;;;;768022;181;925499;-63
2023/10/17 03:37:27;;;;;;;19.30;11.77;;;;;;;;;;771076;181;920141;-63
2023/10/17 03:39:54;;;;;;;15.67;9.70;;;;;;;;;;764179;181;816092;-63
2023/10/17 03:44:54;;;;;;;14.37;10.67;;;;;;;;;;751204;185;911174;-63
2023/10/17 03:47:17;;;;;;;13.83;10.60;;;;;;;;;;772555;181;919658;-64
2023/10/17 03:49:47;;;;;;;16.80;11.40;;;;;;;;;;768375;180;914940;-63
2023/10/17 03:52:10;;;;;;;16.90;11.77;;;;;;;;;;769517;178;914649;-64
2023/10/17 03:54:38;;;;;;;24.02;11.07;;;;;;;;;;772946;181;915250;-65
2023/10/17 03:57:03;;;;;;;14.10;10.50;;;;;;;;;;767205;180;923339;-63
2023/10/17 03:59:38;;;;;;;17.70;12.03;;;;;;;;;;763896;179;914073;-63
2023/10/17 04:01:58;;;;;;;16.73;12.03;;;;;;;;;;768412;180;922308;-63
2023/10/17 04:05:06;;;;;;;15.80;11.43;;;;;;;;;;769869;177;919403;-63
2023/10/17 04:07:08;;;;;;;17.70;11.20;;;;;;;;;;759332;185;815158;-63
2023/10/17 04:09:49;;;;;;;15.27;11.33;;;;;;;;;;773188;179;918891;-62
2023/10/17 04:12:02;;;;;;;18.17;10.50;;;;;;;;;;768914;181;918898;-63
2023/10/17 04:14:33;;;;;;;20.20;10.27;;;;;;;;;;755363;185;918856;-63
2023/10/17 04:16:52;;;;;;;17.70;10.90;;;;;;;;;;775072;178;920246;-64
2023/10/17 04:19:20;;;;;;;16.30;11.30;;;;;;;;;;766432;181;920738;-62
2023/10/17 04:21:49;;;;;;;18.45;11.45;;;;;;;;;;775348;181;818292;-63
2023/10/17 04:24:13;;;;;;;17.47;11.93;;;;;;;;;;769183;181;919334;-64
2023/10/17 04:26:44;;;;;;;16.43;12.23;;;;;;;;;;769373;179;920149;-64
2023/10/17 04:29:13;;;;;;;17.37;11.27;;;;;;;;;;772980;180;817265;-64
2023/10/17 04:31:39;;;;;;;16.50;11.60;;;;;;;;;;758186;185;874154;-63
2023/10/17 04:34:06;;;;;;;14.40;11.50;;;;;;;;;;744455;186;917665;-64
2023/10/17 04:36:35;;;;;;;16.30;12.17;;;;;;;;;;773071;181;817740;-63
2023/10/17 04:39:11;;;;;;;18.23;13.33;;;;;;;;;;770580;181;625584;-64
2023/10/17 04:41:49;;;;;;;13.45;10.52;;;;;;;;;;759364;185;622355;-64
2023/10/17 04:44:15;;;;;;;15.60;11.90;;;;;;;;;;763401;182;632324;-64
2023/10/17 04:46:49;;;;;;;17.87;12.33;;;;;;;;;;754138;182;816839;-64
2023/10/17 04:49:07;;;;;;;14.80;12.00;;;;;;;;;;753909;182;919456;-64
2023/10/17 04:51:38;;;;;;;19.57;13.60;;;;;;;;;;755623;182;624316;-64
2023/10/17 04:54:09;;;;;;;16.03;11.33;;;;;;;;;;754705;181;638901;-64
2023/10/17 04:56:29;;;;;;;19.63;11.50;;;;;;;;;;773992;178;625468;-64
2023/10/17 04:58:56;;;;;;;21.57;13.27;;;;;;;;;;768419;178;814451;-63
2023/10/17 05:03:52;;;;;;;17.03;11.93;;;;;;;;;;770516;180;813696;-62
2023/10/17 05:06:21;;;;;;;15.43;10.73;;;;;;;;;;768780;182;919094;-63
2023/10/17 06:17:22;;;;;;;22.60;13.80;;;;;;;;;;759048;183;919098;-65
2023/10/17 06:19:39;;;;;;;16.97;10.13;;;;;;;;;;753079;186;922157;-65
2023/10/17 06:24:46;;;;;;;20.20;12.67;;;;;;;;;;760570;180;918451;-67
2023/10/17 06:27:12;;;;;;;22.23;12.67;;;;;;;;;;771015;181;919159;-65
2023/10/17 06:35:03;;;;;;;14.83;11.50;;;;;;;;;;766277;181;919126;-65
2023/10/17 06:37:20;;;;;;;16.13;10.40;;;;;;;;;;761698;182;940015;-65
2023/10/17 06:39:46;;;;;;;16.13;11.10;;;;;;;;;;761145;178;918968;-67
2023/10/17 06:42:14;;;;;;;14.27;9.57;;;;;;;;;;771495;181;811280;-67
2023/10/17 06:44:51;;;;;;;12.40;10.47;;;;;;;;;;746736;182;958908;-66
2023/10/17 06:47:16;;;;;;;12.00;8.88;;;;;;;;;;752812;182;919191;-67
2023/10/17 06:54:50;;;;;;;11.03;9.27;;;;;;;;;;756003;182;918939;-70
2023/10/17 06:57:19;;;;;;;12.50;8.63;;;;;;;;;;753825;183;919100;-67
2023/10/17 06:59:45;;;;;;;12.53;9.00;;;;;;;;;;755762;182;856363;-68
2023/10/17 07:02:18;;;;;;;17.13;9.47;;;;;;;;;;759355;182;922757;-69
2023/10/17 07:04:37;;;;;;;12.40;8.13;;;;;;;;;;754721;183;919864;-66
2023/10/17 07:07:04;;;;;;;14.63;9.43;;;;;;;;;;769503;180;916803;-70
2023/10/17 07:09:30;;;;;;;12.93;8.13;;;;;;;;;;775450;180;921582;-64
2023/10/17 07:11:54;;;;;;;10.60;8.43;;;;;;;;;;765830;181;919178;-65
2023/10/17 07:14:22;;;;;;;10.30;7.70;;;;;;;;;;745930;187;816928;-69
2023/10/17 07:16:49;;;;;;;14.30;8.10;;;;;;;;;;768162;178;921600;-68
2023/10/17 07:22:04;;;;;;;10.98;9.75;;;;;;;;;;771719;179;841848;-68
2023/10/17 07:24:16;;;;;;;13.23;9.30;;;;;;;;;;762277;181;915995;-64
2023/10/17 07:26:40;;;;;;;9.03;7.13;;;;;;;;;;767793;181;917438;-64
2023/10/17 07:29:06;;;;;;;11.43;8.37;;;;;;;;;;773562;180;919506;-64
2023/10/17 07:31:32;;;;;;;14.17;9.23;;;;;;;;;;767779;180;874803;-67
2023/10/17 07:36:29;;;;;;;15.23;8.80;;;;;;;;;;774537;180;916972;-66
2023/10/17 07:38:55;;;;;;;10.23;7.77;;;;;;;;;;771646;178;920218;-66
2023/10/17 07:44:09;;;;;;;14.30;8.53;;;;;;;;;;760892;179;900306;-68
2023/10/17 07:46:29;;;;;;;17.50;8.80;;;;;;;;;;772602;181;921233;-68
2023/10/17 07:49:03;;;;;;;12.90;8.70;;;;;;;;;;766274;179;920284;-65
2023/10/17 07:51:22;;;;;;;16.67;9.13;;;;;;;;;;765749;181;918943;-67
2023/10/17 07:53:46;;;;;;;16.87;8.37;;;;;;;;;;766088;181;874367;-64
2023/10/17 07:56:20;;;;;;;14.23;9.17;;;;;;;;;;774304;181;919643;-65
2023/10/17 07:58:42;;;;;;;13.90;8.50;;;;;;;;;;768735;180;919240;-67
2023/10/17 08:01:08;;;;;;;7.97;6.90;;;;;;;;;;768304;181;923028;-69
2023/10/17 08:03:33;;;;;;;9.23;7.27;;;;;;;;;;775788;180;919372;-68
2023/10/17 08:06:07;;;;;;;8.40;7.07;;;;;;;;;;767247;178;866015;-68
2023/10/17 08:08:34;;;;;;;11.70;7.07;;;;;;;;;;767085;181;918826;-67
2023/10/17 08:11:00;;;;;;;9.60;7.05;;;;;;;;;;771425;181;919514;-67
2023/10/17 08:13:28;;;;;;;10.30;6.90;;;;;;;;;;776892;180;712550;-65
2023/10/17 08:15:53;;;;;;;9.93;6.00;;;;;;;;;;773616;181;775372;-68
2023/10/17 08:18:22;;;;;;;16.43;7.00;;;;;;;;;;767773;179;920939;-65
2023/10/17 08:20:54;;;;;;;8.65;5.60;;;;;;;;;;766269;181;915782;-66
2023/10/17 08:23:11;;;;;;;8.30;5.73;;;;;;;;;;767214;179;812250;-65
2023/10/17 08:28:31;;;;;;;10.47;6.53;;;;;;;;;;765922;181;918182;-67
2023/10/17 08:30:38;;;;;;;9.60;6.57;;;;;;;;;;756379;185;816633;-66
2023/10/17 08:35:51;;;;;;;8.07;6.40;;;;;;;;;;769280;181;927705;-69
2023/10/17 08:38:10;;;;;;;8.73;5.10;;;;;;;;;;767680;181;921230;-69
2023/10/17 08:40:43;;;;;;;6.60;5.35;;;;;;;;;;763798;180;944557;-67
2023/10/17 08:43:16;;;;;;;9.10;6.90;;;;;;;;;;767995;180;856689;-66
2023/10/17 08:45:41;;;;;;;8.87;6.00;;;;;;;;;;768460;181;833433;-66
2023/10/17 08:48:08;;;;;;;10.47;7.20;;;;;;;;;;753663;183;921707;-67
2023/10/17 08:50:37;;;;;;;12.80;7.03;;;;;;;;;;752794;182;920041;-65
2023/10/17 08:53:02;;;;;;;9.07;6.40;;;;;;;;;;771713;179;919343;-68
2023/10/17 08:55:27;;;;;;;7.47;5.33;;;;;;;;;;770294;178;918809;-65
2023/10/17 08:57:52;;;;;;;7.93;5.43;;;;;;;;;;748969;182;919350;-66
2023/10/17 09:00:23;;;;;;;6.93;4.80;;;;;;;;;;757077;185;909564;-68
2023/10/17 09:02:56;;;;;;;6.53;5.20;;;;;;;;;;771713;180;869825;-66
2023/10/17 09:05:26;;;;;;;5.60;4.93;;;;;;;;;;770187;181;912172;-66
2023/10/17 09:07:55;;;;;;;9.67;4.50;;;;;;;;;;771715;180;921375;-67
2023/10/17 09:10:18;;;;;;;7.90;5.03;;;;;;;;;;771784;181;920050;-69
2023/10/17 09:12:43;;;;;;;7.70;5.00;;;;;;;;;;768649;180;902951;-66
2023/10/17 09:15:17;;;;;;;5.73;4.57;;;;;;;;;;769107;179;919766;-68
2023/10/17 09:17:41;;;;;;;11.80;5.40;;;;;;;;;;768142;180;920514;-68
2023/10/17 09:20:11;;;;;;;6.60;4.90;;;;;;;;;;772826;181;918853;-66
2023/10/17 09:22:33;;;;;;;8.60;4.13;;;;;;;;;;767814;181;816701;-68
2023/10/17 09:24:59;;;;;;;5.60;3.70;;;;;;;;;;765199;179;938817;-70
2023/10/17 09:27:25;;;;;;;10.23;4.23;;;;;;;;;;772559;181;920577;-67
2023/10/17 09:29:50;;;;;;;7.78;4.95;;;;;;;;;;775359;177;918846;-69
2023/10/17 09:32:22;;;;;;;7.07;4.27;;;;;;;;;;769659;181;920203;-69
2023/10/17 09:34:49;;;;;;;8.15;4.75;;;;;;;;;;771057;181;922831;-67
2023/10/17 09:37:14;;;;;;;7.73;4.60;;;;;;;;;;775606;180;915673;-68
2023/10/17 09:39:46;;;;;;;9.37;3.90;;;;;;;;;;755047;182;918711;-67
2023/10/17 09:42:06;;;;;;;8.63;3.97;;;;;;;;;;766012;181;921059;-69
2023/10/17 09:44:32;;;;;;;12.40;3.77;;;;;;;;;;774158;181;920174;-68
2023/10/17 09:46:58;;;;;;;4.10;3.17;;;;;;;;;;768821;180;923329;-68
2023/10/17 09:49:23;;;;;;;8.43;3.20;;;;;;;;;;768641;180;818680;-68
2023/10/17 09:51:49;;;;;;;6.13;3.00;;;;;;;;;;773674;181;928468;-69
2023/10/17 09:54:16;;;;;;;4.90;2.93;;;;;;;;;;752956;185;920297;-67
2023/10/17 09:56:42;;;;;;;6.63;3.93;;;;;;;;;;754159;184;819394;-68
2023/10/17 09:59:08;;;;;;;5.40;2.63;;;;;;;;;;768007;179;918887;-67
2023/10/17 10:01:33;;;;;;;4.20;2.70;;;;;;;;;;768633;181;920516;-68
2023/10/17 10:04:02;;;;;;;7.33;3.00;;;;;;;;;;768745;180;919977;-67
2023/10/17 10:06:30;;;;;;;3.93;2.17;;;;;;;;;;765459;181;918416;-67
2023/10/17 10:08:54;;;;;;;3.40;1.80;;;;;;;;;;767326;181;815424;-67
2023/10/17 10:11:19;;;;;;;4.47;2.73;;;;;;;;;;771983;181;817203;-68
2023/10/17 10:13:51;;;;;;;7.90;2.93;;;;;;;;;;770409;181;919026;-66
2023/10/17 10:16:17;;;;;;;3.63;2.50;;;;;;;;;;754537;184;836089;-70
2023/10/17 10:18:58;;;;;;;5.20;2.83;;;;;;;;;;754460;184;916869;-68
2023/10/17 10:21:23;;;;;;;7.00;2.67;;;;;;;;;;759718;183;864962;-68
2023/10/17 10:23:50;;;;;;;4.87;2.17;;;;;;;;;;746286;186;919465;-68
2023/10/17 10:26:16;;;;;;;4.20;1.90;;;;;;;;;;751840;184;922548;-69
2023/10/17 10:28:41;;;;;;;3.10;1.70;;;;;;;;;;759944;185;920520;-68
2023/10/17 10:31:16;;;;;;;6.70;1.83;;;;;;;;;;736110;187;919363;-69
2023/10/17 10:33:42;;;;;;;3.07;1.57;;;;;;;;;;761099;181;917414;-68
2023/10/17 10:36:07;;;;;;;3.97;2.20;;;;;;;;;;743780;185;919028;-68
2023/10/17 10:38:33;;;;;;;6.07;2.10;;;;;;;;;;760982;182;918459;-69
2023/10/17 10:40:59;;;;;;;2.40;1.30;;;;;;;;;;756309;185;918411;-69
2023/10/17 10:43:25;;;;;;;11.37;1.90;;;;;;;;;;766289;179;918886;-68
2023/10/17 10:45:52;;;;;;;4.30;1.90;;;;;;;;;;771975;178;919128;-68
2023/10/17 10:48:17;;;;;;;3.50;1.93;;;;;;;;;;767815;180;815342;-67
2023/10/17 10:50:43;;;;;;;5.53;2.27;;;;;;;;;;768133;179;919489;-70
2023/10/17 10:53:14;;;;;;;3.03;1.70;;;;;;;;;;773415;179;922976;-66
2023/10/17 10:55:40;;;;;;;4.27;2.37;;;;;;;;;;752566;185;875444;-70
2023/10/17 10:58:06;;;;;;;4.57;1.80;;;;;;;;;;765519;181;919526;-68
2023/10/17 11:00:32;;;;;;;3.77;2.00;;;;;;;;;;770156;181;813070;-72
2023/10/17 11:02:58;;;;;;;5.25;2.90;;;;;;;;;;769502;181;920357;-67
2023/10/17 11:05:23;;;;;;;5.70;2.00;;;;;;;;;;756530;181;822129;-67
2023/10/17 11:07:49;;;;;;;10.05;4.15;;;;;;;;;;768843;181;919736;-70
2023/10/17 11:10:18;;;;;;;3.07;2.10;;;;;;;;;;772763;181;920840;-67
2023/10/17 11:12:41;;;;;;;3.20;2.13;;;;;;;;;;761198;181;921050;-68
2023/10/17 11:15:12;;;;;;;5.30;2.17;;;;;;;;;;765264;181;916446;-68
2023/10/17 11:17:37;;;;;;;4.83;2.90;;;;;;;;;;769028;178;920406;-67
2023/10/17 11:20:12;;;;;;;6.50;3.03;;;;;;;;;;774419;178;816662;-71
2023/10/17 11:22:29;;;;;;;3.50;2.30;;;;;;;;;;764605;181;922156;-71
2023/10/17 11:24:55;;;;;;;3.43;2.00;;;;;;;;;;756116;182;900189;-68
2023/10/17 11:27:20;;;;;;;7.50;4.17;;;;;;;;;;758484;183;911029;-70
2023/10/17 11:29:51;;;;;;;6.10;3.03;;;;;;;;;;769160;181;916160;-71
2023/10/17 11:32:13;;;;;;;3.50;2.27;;;;;;;;;;770091;180;874481;-69
2023/10/17 11:34:38;;;;;;;6.50;4.18;;;;;;;;;;773499;181;921917;-71
2023/10/17 11:37:11;;;;;;;5.47;3.83;;;;;;;;;;766203;181;919370;-68
2023/10/17 11:39:35;;;;;;;6.10;3.30;;;;;;;;;;770793;181;919294;-67
2023/10/17 11:42:01;;;;;;;6.07;2.80;;;;;;;;;;770776;181;920242;-67
2023/10/17 11:44:31;;;;;;;6.07;2.87;;;;;;;;;;775249;181;917718;-69
2023/10/17 11:47:01;;;;;;;4.33;3.00;;;;;;;;;;768227;180;919245;-68
2023/10/17 11:49:27;;;;;;;7.00;3.20;;;;;;;;;;774944;178;920425;-68
2023/10/17 11:52:00;;;;;;;4.70;2.70;;;;;;;;;;770582;180;816011;-67
2023/10/17 11:54:25;;;;;;;4.30;2.70;;;;;;;;;;772310;180;918495;-70
2023/10/17 11:56:51;;;;;;;4.77;3.40;;;;;;;;;;769751;181;923789;-69
2023/10/17 11:59:18;;;;;;;5.00;3.00;;;;;;;;;;765744;181;914882;-69
2023/10/17 12:01:47;;;;;;;4.32;2.40;;;;;;;;;;772498;177;919250;-68
2023/10/17 12:04:16;;;;;;;6.00;2.90;;;;;;;;;;773146;179;918285;-69
2023/10/17 12:06:40;;;;;;;4.05;2.20;;;;;;;;;;748653;182;817545;-70
2023/10/17 12:09:17;;;;;;;9.07;2.87;;;;;;;;;;770215;180;815930;-66
2023/10/17 12:11:31;;;;;;;4.07;2.20;;;;;;;;;;758604;184;916295;-68
2023/10/17 12:13:57;;;;;;;8.47;6.13;;;;;;;;;;772695;177;919398;-69
2023/10/17 12:16:23;;;;;;;20.03;12.63;;;;;;;;;;765177;181;900954;-68
2023/10/17 12:18:49;;;;;;;3.33;2.23;;;;;;;;;;776016;178;824095;-69
2023/10/17 12:21:15;;;;;;;3.73;2.20;;;;;;;;;;765578;181;943337;-69
2023/10/17 12:23:41;;;;;;;4.30;2.20;;;;;;;;;;769326;181;919325;-66
2023/10/17 12:26:13;;;;;;;4.80;2.67;;;;;;;;;;766736;180;925201;-68
2023/10/17 12:28:33;;;;;;;2.83;1.90;;;;;;;;;;763586;183;817223;-66
2023/10/17 12:30:59;;;;;;;3.83;1.87;;;;;;;;;;761123;181;817423;-69
2023/10/17 12:33:24;;;;;;;6.43;1.80;;;;;;;;;;750498;185;916971;-69
2023/10/17 12:35:50;;;;;;;5.20;1.92;;;;;;;;;;758488;185;919585;-68
2023/10/17 12:38:24;;;;;;;3.80;2.33;;;;;;;;;;765110;181;918958;-67
2023/10/17 12:40:42;;;;;;;5.23;2.00;;;;;;;;;;768059;180;918933;-69
2023/10/17 12:43:11;;;;;;;4.20;2.30;;;;;;;;;;768025;180;918430;-67
2023/10/17 12:45:36;;;;;;;4.27;2.03;;;;;;;;;;769815;178;914703;-65
2023/10/17 12:48:00;;;;;;;3.33;2.10;;;;;;;;;;768340;180;918003;-66
2023/10/17 12:50:26;;;;;;;6.65;1.70;;;;;;;;;;771474;180;921042;-69
2023/10/17 12:52:53;;;;;;;3.33;1.87;;;;;;;;;;771693;181;920373;-70
2023/10/17 12:55:19;;;;;;;5.73;3.10;;;;;;;;;;763766;181;906225;-68
2023/10/17 12:57:43;;;;;;;3.43;1.93;;;;;;;;;;771403;180;905822;-69
2023/10/17 13:00:10;;;;;;;3.53;2.60;;;;;;;;;;776437;180;873202;-66
2023/10/17 13:02:38;;;;;;;5.50;3.03;;;;;;;;;;770437;181;787540;-69
2023/10/17 13:05:05;;;;;;;6.60;2.20;;;;;;;;;;770274;178;1014677;-68
2023/10/17 13:07:28;;;;;;;8.37;2.50;;;;;;;;;;768594;181;920629;-66
2023/10/17 13:09:54;;;;;;;4.30;2.63;;;;;;;;;;766874;181;912488;-69
2023/10/17 13:12:20;;;;;;;8.10;2.57;;;;;;;;;;767561;181;914189;-68
2023/10/17 13:14:46;;;;;;;5.25;2.78;;;;;;;;;;774105;181;885939;-66
2023/10/17 13:17:13;;;;;;;4.30;2.63;;;;;;;;;;764494;182;906568;-68
2023/10/17 13:19:43;;;;;;;4.87;2.67;;;;;;;;;;764844;181;917899;-65
2023/10/17 13:22:08;;;;;;;4.60;2.73;;;;;;;;;;756094;182;926100;-67
2023/10/17 13:24:31;;;;;;;4.90;2.53;;;;;;;;;;759750;182;898330;-68
2023/10/17 13:26:57;;;;;;;6.83;2.87;;;;;;;;;;754666;182;924617;-66
2023/10/17 13:29:23;;;;;;;3.60;2.62;;;;;;;;;;754886;183;919150;-68
2023/10/17 13:31:49;;;;;;;3.60;2.97;;;;;;;;;;760712;185;817510;-65
2023/10/17 13:34:22;;;;;;;4.47;2.60;;;;;;;;;;756468;184;919370;-64
2023/10/17 13:36:41;;;;;;;4.20;2.70;;;;;;;;;;765008;181;917943;-65
2023/10/17 13:39:08;;;;;;;11.63;2.90;;;;;;;;;;774126;178;814797;-66
2023/10/17 13:41:33;;;;;;;5.30;2.93;;;;;;;;;;761432;181;1225147;-66
2023/10/17 13:43:59;;;;;;;5.20;3.67;;;;;;;;;;745189;185;919276;-65
2023/10/17 13:46:25;;;;;;;4.85;2.85;;;;;;;;;;752307;184;1021548;-67
2023/10/17 13:48:51;;;;;;;4.27;2.70;;;;;;;;;;760798;183;832664;-66
2023/10/17 13:51:19;;;;;;;3.77;2.20;;;;;;;;;;766239;181;919734;-64
2023/10/17 13:53:45;;;;;;;9.17;4.00;;;;;;;;;;764707;181;917198;-65
2023/10/17 13:56:15;;;;;;;5.23;2.93;;;;;;;;;;774178;181;912977;-67
2023/10/17 13:58:41;;;;;;;6.30;3.47;;;;;;;;;;767533;180;862624;-68
2023/10/17 14:01:27;;;;;;;7.00;4.33;;;;;;;;;;765300;181;935949;-66
2023/10/17 14:03:33;;;;;;;7.13;3.30;;;;;;;;;;767079;181;915639;-66
2023/10/17 14:05:59;;;;;;;5.37;2.90;;;;;;;;;;780060;181;715412;-68
2023/10/17 14:08:25;;;;;;;6.03;3.08;;;;;;;;;;766962;180;922852;-65
2023/10/17 14:10:50;;;;;;;10.33;2.80;;;;;;;;;;764997;178;917827;-68
2023/10/17 14:13:17;;;;;;;4.23;2.53;;;;;;;;;;774687;179;931474;-67
2023/10/17 14:15:42;;;;;;;4.47;2.40;;;;;;;;;;768245;180;918816;-64
2023/10/17 14:18:13;;;;;;;4.40;2.83;;;;;;;;;;770436;180;916160;-64
2023/10/17 14:20:39;;;;;;;12.53;5.13;;;;;;;;;;772709;181;941106;-69
2023/10/17 14:23:08;;;;;;;4.20;2.97;;;;;;;;;;770883;181;916216;-64
2023/10/17 14:28:06;;;;;;;6.60;3.70;;;;;;;;;;755086;182;920687;-67
2023/10/17 14:30:32;;;;;;;10.02;6.20;;;;;;;;;;758094;184;913251;-65
2023/10/17 14:32:58;;;;;;;9.67;6.20;;;;;;;;;;770501;181;715887;-65
2023/10/17 14:35:23;;;;;;;13.30;6.57;;;;;;;;;;769005;181;909950;-68
2023/10/17 14:37:50;;;;;;;7.07;4.40;;;;;;;;;;769540;181;812082;-64
2023/10/17 14:40:17;;;;;;;9.70;3.43;;;;;;;;;;763766;185;619918;-65
2023/10/17 14:42:42;;;;;;;7.00;4.60;;;;;;;;;;755364;183;619150;-67
2023/10/17 14:45:08;;;;;;;8.30;4.70;;;;;;;;;;753345;184;918321;-64
2023/10/17 14:47:35;;;;;;;9.60;5.00;;;;;;;;;;739500;189;910470;-68
2023/10/17 14:49:59;;;;;;;7.33;4.93;;;;;;;;;;764139;178;919639;-63
2023/10/17 14:52:25;;;;;;;11.50;5.47;;;;;;;;;;767998;181;919175;-66
2023/10/17 14:54:51;;;;;;;9.40;5.37;;;;;;;;;;776394;178;917951;-62
2023/10/17 14:57:17;;;;;;;7.93;5.10;;;;;;;;;;772667;180;919314;-66
2023/10/17 14:59:43;;;;;;;10.00;6.40;;;;;;;;;;767686;180;914241;-68
2023/10/17 15:02:10;;;;;;;7.67;5.23;;;;;;;;;;754408;181;943794;-65
2023/10/17 15:04:37;;;;;;;8.55;5.75;;;;;;;;;;755427;184;817785;-68
2023/10/17 15:07:00;;;;;;;8.40;4.97;;;;;;;;;;768631;181;918756;-67
2023/10/17 15:09:26;;;;;;;9.77;5.00;;;;;;;;;;764135;182;918459;-66
2023/10/17 15:11:53;;;;;;;8.20;5.28;;;;;;;;;;776238;180;919010;-64
2023/10/17 15:14:18;;;;;;;7.27;4.47;;;;;;;;;;773404;177;920498;-63
2023/10/17 15:16:44;;;;;;;7.60;5.40;;;;;;;;;;768885;181;919660;-67
2023/10/17 15:19:10;;;;;;;11.13;7.20;;;;;;;;;;760931;182;816365;-66
2023/10/17 15:21:35;;;;;;;10.37;6.20;;;;;;;;;;758691;183;919635;-63
2023/10/17 15:24:02;;;;;;;7.23;4.50;;;;;;;;;;766979;181;920093;-63
2023/10/17 15:26:27;;;;;;;10.50;5.77;;;;;;;;;;771249;181;918934;-64
2023/10/17 15:28:53;;;;;;;8.60;5.13;;;;;;;;;;763051;181;912998;-63
2023/10/17 15:31:19;;;;;;;8.03;5.27;;;;;;;;;;744697;183;926522;-63
2023/10/17 15:33:45;;;;;;;8.60;4.62;;;;;;;;;;754290;182;892228;-63
2023/10/17 15:36:11;;;;;;;4.93;3.30;;;;;;;;;;756328;185;817585;-65
2023/10/17 15:38:36;;;;;;;11.93;3.50;;;;;;;;;;767702;181;918962;-67
2023/10/17 15:41:02;;;;;;;6.30;3.67;;;;;;;;;;770754;181;919206;-65
2023/10/17 15:43:28;;;;;;;5.47;3.33;;;;;;;;;;757924;185;920036;-63
2023/10/17 15:45:55;;;;;;;8.83;4.37;;;;;;;;;;771163;181;859785;-62
2023/10/17 15:48:22;;;;;;;7.87;4.93;;;;;;;;;;769120;180;917892;-63
2023/10/17 15:50:47;;;;;;;12.20;7.60;;;;;;;;;;777108;181;816369;-65
2023/10/17 15:53:13;;;;;;;23.13;11.60;;;;;;;;;;758396;184;919241;-64
2023/10/17 15:55:39;;;;;;;26.83;15.50;;;;;;;;;;764535;181;918891;-63
2023/10/17 15:58:05;;;;;;;37.80;20.50;;;;;;;;;;772622;178;920801;-62
2023/10/17 16:00:30;;;;;;;19.90;11.13;;;;;;;;;;752731;185;917710;-62
2023/10/17 16:02:57;;;;;;;19.40;11.53;;;;;;;;;;768049;178;921618;-62